Time;durP1;ratioP1;P1;durP2;ratioP2;P2;SDS_P1;SDS_P2;PMS_P1;PMS_P2;Temp;Humidity;BMP_temperature;BMP_pressure;BME280_temperature;BME280_humidity;BME280_pressure;Samples;Min_cycle;Max_cycle;Signal;HPM_P1;HPM_P2
2022/03/20 00:02:25;;;;;;;;;;;;;;;5.25;58.54;103346.34;5095383;28;19967;-76
2022/03/20 00:04:50;;;;;;;;;;;;;;;5.22;58.73;103343.56;5102111;28;20014;-75
2022/03/20 00:07:15;;;;;;;;;;;;;;;5.14;59.43;103334.28;5097940;28;19930;-76
2022/03/20 00:09:41;;;;;;;;;;;;;;;5.08;59.80;103339.75;5101327;28;19930;-76
2022/03/20 00:12:07;;;;;;;;;;;;;;;5.04;59.36;103332.59;5108551;28;20342;-76
2022/03/20 00:14:32;;;;;;;;;;;;;;;4.98;60.22;103334.59;5103643;28;19952;-76
2022/03/20 00:16:57;;;;;;;;;;;;;;;4.95;60.32;103329.22;5105499;28;20003;-75
2022/03/20 00:19:23;;;;;;;;;;;;;;;4.87;60.46;103331.06;5101965;28;19923;-76
2022/03/20 00:21:49;;;;;;;;;;;;;;;4.79;60.77;103327.84;5100285;28;19923;-76
2022/03/20 00:24:15;;;;;;;;;;;;;;;4.73;61.33;103321.25;5104078;28;19927;-75
2022/03/20 00:26:42;;;;;;;;;;;;;;;4.67;61.35;103313.06;5102698;28;20682;-75
2022/03/20 00:29:07;;;;;;;;;;;;;;;4.60;61.77;103308.16;5105505;28;20343;-76
2022/03/20 00:31:33;;;;;;;;;;;;;;;4.57;61.37;103306.25;5102739;28;19965;-74
2022/03/20 00:33:59;;;;;;;;;;;;;;;4.49;61.44;103304.63;5102688;28;20014;-76
2022/03/20 00:36:24;;;;;;;;;;;;;;;4.37;61.58;103299.34;5103356;28;19923;-76
2022/03/20 00:38:49;;;;;;;;;;;;;;;4.27;62.54;103301.78;5100322;28;20382;-76
2022/03/20 00:41:15;;;;;;;;;;;;;;;4.20;62.14;103287.59;5101384;28;20026;-75
2022/03/20 00:43:40;;;;;;;;;;;;;;;4.14;62.29;103286.13;5102125;28;19924;-76
2022/03/20 00:46:05;;;;;;;;;;;;;;;4.10;62.57;103279.84;5103173;28;19927;-77
2022/03/20 00:48:30;;;;;;;;;;;;;;;4.07;62.10;103281.22;5106504;28;19920;-75
2022/03/20 00:51:02;;;;;;;;;;;;;;;4.04;60.20;103280.16;5093591;27;20270;-75
2022/03/20 00:53:28;;;;;;;;;;;;;;;3.92;62.43;103275.59;5098643;28;20375;-75
2022/03/20 00:55:53;;;;;;;;;;;;;;;3.86;60.78;103270.81;5098038;28;19974;-75
2022/03/20 00:58:18;;;;;;;;;;;;;;;3.80;63.19;103269.34;5095278;28;20324;-75
2022/03/20 01:00:43;;;;;;;;;;;;;;;3.75;63.15;103264.72;5102565;28;19920;-74
2022/03/20 01:03:09;;;;;;;;;;;;;;;3.75;62.29;103267.25;5100633;28;20393;-75
2022/03/20 01:05:34;;;;;;;;;;;;;;;3.74;64.42;103260.38;5099110;28;19920;-75
2022/03/20 01:08:00;;;;;;;;;;;;;;;3.74;64.41;103262.03;5102194;28;19920;-75
2022/03/20 01:10:25;;;;;;;;;;;;;;;3.80;65.72;103261.72;5100595;28;20454;-76
2022/03/20 01:12:50;;;;;;;;;;;;;;;3.82;65.11;103258.56;5105513;28;20011;-75
2022/03/20 01:15:15;;;;;;;;;;;;;;;3.82;65.44;103256.00;5096242;28;19951;-75
2022/03/20 01:17:41;;;;;;;;;;;;;;;3.84;65.12;103248.53;5097435;28;20410;-76
2022/03/20 01:20:08;;;;;;;;;;;;;;;3.81;65.46;103248.25;5094444;28;19985;-75
2022/03/20 01:22:34;;;;;;;;;;;;;;;3.81;64.76;103243.16;5093469;28;19981;-75
2022/03/20 01:25:00;;;;;;;;;;;;;;;3.79;65.53;103250.66;5093487;28;20021;-75
2022/03/20 01:27:25;;;;;;;;;;;;;;;3.82;64.78;103244.94;5095910;28;19916;-75
2022/03/20 01:29:50;;;;;;;;;;;;;;;3.80;65.07;103233.72;5089823;28;19946;-75
2022/03/20 01:32:16;;;;;;;;;;;;;;;3.73;65.56;103222.97;5104460;28;20434;-75
2022/03/20 01:34:41;;;;;;;;;;;;;;;3.71;65.51;103221.94;5109935;28;20012;-76
2022/03/20 01:37:08;;;;;;;;;;;;;;;3.70;65.40;103220.16;5102078;28;19965;-76
2022/03/20 01:39:34;;;;;;;;;;;;;;;3.78;65.16;103217.44;5104932;28;19916;-76
2022/03/20 01:41:59;;;;;;;;;;;;;;;3.81;64.59;103212.59;5103958;28;19927;-76
2022/03/20 01:44:31;;;;;;;;;;;;;;;3.78;64.43;103204.72;5101052;28;19923;-76
2022/03/20 01:46:56;;;;;;;;;;;;;;;3.78;64.06;103191.97;5102624;28;19924;-76
2022/03/20 01:49:21;;;;;;;;;;;;;;;3.79;64.08;103192.13;5105161;28;19941;-76
2022/03/20 01:54:31;;;;;;;;;;;;;;;3.71;64.50;103178.69;5100535;27;19931;-77
2022/03/20 01:56:57;;;;;;;;;;;;;;;3.72;64.25;103177.94;5100851;28;20187;-75
2022/03/20 01:59:22;;;;;;;;;;;;;;;3.62;65.02;103170.19;5102242;28;21307;-76
2022/03/20 02:01:48;;;;;;;;;;;;;;;3.60;64.82;103168.28;5103908;28;19935;-75
2022/03/20 02:04:14;;;;;;;;;;;;;;;3.60;64.30;103173.34;5106644;27;19924;-76
2022/03/20 02:06:40;;;;;;;;;;;;;;;3.57;64.90;103176.50;5107842;28;20008;-76
2022/03/20 02:09:05;;;;;;;;;;;;;;;3.60;64.94;103181.00;5108180;28;19923;-75
2022/03/20 02:11:32;;;;;;;;;;;;;;;3.57;64.76;103173.94;5107607;28;19949;-76
2022/03/20 02:13:58;;;;;;;;;;;;;;;3.55;64.93;103166.94;5097508;28;20316;-75
2022/03/20 02:16:23;;;;;;;;;;;;;;;3.56;64.74;103163.66;5104218;28;19961;-75
2022/03/20 02:18:49;;;;;;;;;;;;;;;3.52;64.76;103159.94;5098421;28;19928;-76
2022/03/20 02:21:15;;;;;;;;;;;;;;;3.48;65.11;103158.75;5105851;28;19977;-76
2022/03/20 02:23:41;;;;;;;;;;;;;;;3.46;65.24;103151.75;5104692;28;20353;-77
2022/03/20 02:26:07;;;;;;;;;;;;;;;3.43;65.31;103146.34;5102690;28;20445;-74
2022/03/20 02:28:32;;;;;;;;;;;;;;;3.35;65.34;103147.28;5101373;28;19955;-75
2022/03/20 02:30:57;;;;;;;;;;;;;;;3.35;65.56;103134.56;5105651;28;19935;-75
2022/03/20 02:33:27;;;;;;;;;;;;;;;3.34;65.26;103128.59;5104833;28;20363;-77
2022/03/20 02:35:53;;;;;;;;;;;;;;;3.29;65.18;103132.34;5102075;28;20010;-76
2022/03/20 02:38:18;;;;;;;;;;;;;;;3.26;65.75;103118.44;5102079;28;20736;-76
2022/03/20 02:40:44;;;;;;;;;;;;;;;3.21;65.78;103123.09;5106305;28;19930;-76
2022/03/20 02:43:09;;;;;;;;;;;;;;;3.14;66.20;103119.09;5106860;28;19924;-78
2022/03/20 02:45:34;;;;;;;;;;;;;;;3.18;65.82;103128.81;5103136;28;19970;-75
2022/03/20 02:48:01;;;;;;;;;;;;;;;3.19;65.64;103124.59;5105480;28;19972;-75
2022/03/20 02:50:28;;;;;;;;;;;;;;;3.16;65.87;103119.25;5101407;28;19976;-75
2022/03/20 02:52:53;;;;;;;;;;;;;;;3.12;66.05;103115.50;5105520;28;19930;-76
2022/03/20 02:55:38;;;;;;;;;;;;;;;3.11;66.09;103107.75;5104972;28;20347;-75
2022/03/20 02:58:05;;;;;;;;;;;;;;;3.07;65.75;103109.09;5100277;28;19915;-75
2022/03/20 03:00:31;;;;;;;;;;;;;;;3.01;65.99;103113.59;5104103;28;20036;-76
2022/03/20 03:02:58;;;;;;;;;;;;;;;2.94;66.70;103112.13;5103156;28;20396;-76
2022/03/20 03:05:25;;;;;;;;;;;;;;;2.91;66.78;103109.31;5097318;28;19916;-74
2022/03/20 03:13:22;;;;;;;;;;;;;;;2.75;67.47;103093.38;5106731;28;19973;-76
2022/03/20 03:15:47;;;;;;;;;;;;;;;2.68;68.10;103084.25;5101356;28;20302;-75
2022/03/20 03:18:12;;;;;;;;;;;;;;;2.61;68.54;103086.97;5101461;28;19931;-75
2022/03/20 03:20:37;;;;;;;;;;;;;;;2.58;68.83;103090.84;5101875;28;20026;-75
2022/03/20 03:23:04;;;;;;;;;;;;;;;2.53;68.28;103087.88;5102625;28;20015;-75
2022/03/20 03:25:32;;;;;;;;;;;;;;;2.43;69.48;103087.75;5102398;28;19924;-75
2022/03/20 03:27:58;;;;;;;;;;;;;;;2.40;69.43;103088.34;5101289;28;20423;-76
2022/03/20 03:30:23;;;;;;;;;;;;;;;2.36;69.53;103085.34;5103418;28;19916;-76
2022/03/20 03:32:48;;;;;;;;;;;;;;;2.27;70.30;103080.28;5101205;28;19920;-76
2022/03/20 03:37:59;;;;;;;;;;;;;;;2.28;70.23;103064.31;5100493;28;20289;-77
2022/03/20 03:40:25;;;;;;;;;;;;;;;2.30;70.52;103065.34;5100831;28;19992;-76
2022/03/20 03:42:50;;;;;;;;;;;;;;;2.34;70.31;103053.84;5109643;28;20279;-78
2022/03/20 03:45:15;;;;;;;;;;;;;;;2.35;70.43;103054.00;5108228;28;19930;-76
2022/03/20 03:47:41;;;;;;;;;;;;;;;2.41;69.91;103056.22;5110474;28;20006;-76
2022/03/20 03:50:07;;;;;;;;;;;;;;;2.37;70.22;103041.47;5109623;28;19916;-76
2022/03/20 03:52:32;;;;;;;;;;;;;;;2.38;70.09;103033.09;5103235;28;19924;-76
2022/03/20 03:54:57;;;;;;;;;;;;;;;2.35;70.19;103037.88;5101421;28;20011;-76
2022/03/20 03:57:22;;;;;;;;;;;;;;;2.31;70.14;103031.63;5105661;28;19979;-77
2022/03/20 03:59:48;;;;;;;;;;;;;;;2.27;70.33;103028.63;5106436;28;19920;-75
2022/03/20 04:02:15;;;;;;;;;;;;;;;2.26;69.86;103025.19;5105172;28;20023;-76
2022/03/20 04:04:41;;;;;;;;;;;;;;;2.23;70.52;103024.00;5103043;28;19916;-75
2022/03/20 04:07:06;;;;;;;;;;;;;;;2.20;70.69;103022.06;5107897;28;19932;-76
2022/03/20 04:09:32;;;;;;;;;;;;;;;2.17;70.89;103026.84;5118451;28;19980;-76
2022/03/20 04:11:58;;;;;;;;;;;;;;;2.15;70.84;103021.63;5129092;28;19973;-75
2022/03/20 04:14:24;;;;;;;;;;;;;;;2.14;71.04;103022.38;5121358;28;20146;-75
2022/03/20 04:16:50;;;;;;;;;;;;;;;2.17;70.88;103016.69;5109657;28;19956;-75
2022/03/20 04:19:15;;;;;;;;;;;;;;;2.18;70.97;103010.84;5101078;28;19924;-74
2022/03/20 04:21:41;;;;;;;;;;;;;;;2.22;70.65;103014.59;5105650;28;19935;-75
2022/03/20 04:24:07;;;;;;;;;;;;;;;2.20;70.30;102995.78;5102584;28;19985;-76
2022/03/20 04:26:34;;;;;;;;;;;;;;;2.17;70.73;102998.03;5100579;27;20321;-75
2022/03/20 04:28:59;;;;;;;;;;;;;;;2.17;70.74;102998.03;5104510;28;19915;-76
2022/03/20 04:31:24;;;;;;;;;;;;;;;2.17;70.84;102985.34;5106447;28;19999;-77
2022/03/20 04:33:51;;;;;;;;;;;;;;;2.21;70.35;102974.72;5105662;28;20370;-75
2022/03/20 04:36:17;;;;;;;;;;;;;;;2.23;70.17;102975.75;5100879;28;20433;-77
2022/03/20 04:38:45;;;;;;;;;;;;;;;2.24;70.14;102963.22;5094940;27;19924;-76
2022/03/20 04:41:11;;;;;;;;;;;;;;;2.25;70.07;102959.06;5102055;27;19923;-77
2022/03/20 04:43:36;;;;;;;;;;;;;;;2.23;69.72;102955.47;5100060;28;19932;-74
2022/03/20 04:46:01;;;;;;;;;;;;;;;2.23;69.81;102960.53;5103659;28;20390;-76
2022/03/20 04:59:22;;;;;;;;;;;;;;;2.14;69.66;102940.25;5105998;28;19934;-75
2022/03/20 05:01:48;;;;;;;;;;;;;;;2.14;70.05;102952.97;5104706;28;19916;-76
2022/03/20 05:04:14;;;;;;;;;;;;;;;2.14;70.01;102951.31;5100576;28;19920;-76
2022/03/20 05:06:40;;;;;;;;;;;;;;;2.12;69.81;102939.22;5107955;28;19924;-76
2022/03/20 05:14:34;;;;;;;;;;;;;;;2.06;69.70;102926.84;5099691;28;20275;-75
2022/03/20 05:17:00;;;;;;;;;;;;;;;2.10;69.74;102923.84;5104886;28;19916;-77
2022/03/20 05:19:26;;;;;;;;;;;;;;;2.07;69.86;102922.69;5106077;28;20012;-78
2022/03/20 05:21:51;;;;;;;;;;;;;;;2.06;69.85;102920.84;5104444;28;19916;-74
2022/03/20 05:24:17;;;;;;;;;;;;;;;2.02;69.75;102909.53;5104929;28;19980;-75
2022/03/20 05:26:42;;;;;;;;;;;;;;;2.05;69.30;102927.56;5100801;28;19920;-77
2022/03/20 05:29:08;;;;;;;;;;;;;;;2.05;69.65;102919.97;5101086;28;20002;-76
2022/03/20 05:31:33;;;;;;;;;;;;;;;2.05;69.23;102925.03;5101952;28;19924;-74
2022/03/20 05:33:59;;;;;;;;;;;;;;;2.00;69.36;102931.34;5098774;28;19927;-76
2022/03/20 05:36:28;;;;;;;;;;;;;;;2.02;69.17;102934.03;5103475;28;19955;-76
2022/03/20 05:38:54;;;;;;;;;;;;;;;1.99;69.12;102909.22;5099699;28;20388;-75
2022/03/20 05:44:03;;;;;;;;;;;;;;;1.99;68.96;102908.34;5095003;28;20035;-75
2022/03/20 05:46:29;;;;;;;;;;;;;;;2.00;68.69;102910.13;5038873;28;1823727;-75
2022/03/20 05:48:54;;;;;;;;;;;;;;;2.03;68.30;102912.97;5106162;27;19923;-75
2022/03/20 05:51:19;;;;;;;;;;;;;;;2.07;67.99;102899.84;5101431;28;20386;-75
2022/03/20 05:53:44;;;;;;;;;;;;;;;2.07;67.66;102898.19;5105780;28;19920;-76
2022/03/20 05:58:54;;;;;;;;;;;;;;;2.13;66.75;102896.22;5103246;28;20027;-74
2022/03/20 06:01:20;;;;;;;;;;;;;;;2.21;66.36;102885.91;5098149;28;20002;-74
2022/03/20 06:03:45;;;;;;;;;;;;;;;2.30;65.53;102882.56;5102050;28;19959;-76
2022/03/20 06:06:10;;;;;;;;;;;;;;;2.41;64.92;102874.28;5101155;28;19963;-75
2022/03/20 06:08:36;;;;;;;;;;;;;;;2.54;64.07;102877.97;5106448;28;19927;-74
2022/03/20 06:11:02;;;;;;;;;;;;;;;2.65;63.45;102887.47;5100421;28;19923;-75
2022/03/20 06:13:28;;;;;;;;;;;;;;;2.74;63.12;102877.28;5098626;28;19924;-74
2022/03/20 06:15:57;;;;;;;;;;;;;;;2.77;62.32;102880.97;5095270;28;20022;-74
2022/03/20 06:18:23;;;;;;;;;;;;;;;2.85;62.09;102887.69;5103766;28;19920;-76
2022/03/20 06:20:49;;;;;;;;;;;;;;;2.88;61.52;102877.78;5101180;28;20014;-76
2022/03/20 06:23:14;;;;;;;;;;;;;;;3.03;60.96;102885.00;5104513;28;20014;-75
2022/03/20 06:25:39;;;;;;;;;;;;;;;3.14;60.62;102884.31;5100410;28;19927;-76
2022/03/20 06:28:05;;;;;;;;;;;;;;;3.33;59.87;102869.06;5103728;28;19919;-77
2022/03/20 06:30:33;;;;;;;;;;;;;;;3.45;59.35;102865.94;5101366;28;20515;-75
2022/03/20 06:32:59;;;;;;;;;;;;;;;3.59;58.73;102864.66;5098211;28;19932;-76
2022/03/20 06:35:24;;;;;;;;;;;;;;;3.81;58.30;102864.84;5105158;28;20448;-76
2022/03/20 06:37:50;;;;;;;;;;;;;;;3.96;57.32;102866.19;5105372;28;19950;-77
2022/03/20 06:40:16;;;;;;;;;;;;;;;4.02;57.33;102870.94;5108540;28;19916;-75
2022/03/20 06:42:41;;;;;;;;;;;;;;;4.07;56.80;102882.41;5098687;28;20615;-76
2022/03/20 06:45:08;;;;;;;;;;;;;;;4.07;56.93;102878.97;5103912;28;19931;-74
2022/03/20 06:47:34;;;;;;;;;;;;;;;4.16;56.45;102872.09;5100693;28;19930;-75
2022/03/20 06:50:00;;;;;;;;;;;;;;;3.99;56.94;102863.00;5120639;28;19979;-76
2022/03/20 06:52:28;;;;;;;;;;;;;;;3.89;57.24;102865.53;5115861;28;21091;-76
2022/03/20 06:54:55;;;;;;;;;;;;;;;3.82;57.25;102859.00;5105942;28;19927;-76
2022/03/20 06:57:20;;;;;;;;;;;;;;;3.82;57.29;102853.03;5099223;28;20002;-76
2022/03/20 06:59:46;;;;;;;;;;;;;;;3.92;56.94;102845.44;5098847;28;20009;-76
2022/03/20 07:02:11;;;;;;;;;;;;;;;3.91;56.58;102847.09;5105508;28;20290;-75
2022/03/20 07:04:36;;;;;;;;;;;;;;;3.88;56.22;102844.25;5102072;28;20401;-76
2022/03/20 07:07:02;;;;;;;;;;;;;;;3.93;55.76;102840.47;5105791;28;19926;-76
2022/03/20 07:09:27;;;;;;;;;;;;;;;3.93;56.22;102837.03;5104760;28;19931;-75
2022/03/20 07:11:52;;;;;;;;;;;;;;;4.06;55.18;102839.88;5103997;28;19924;-75
2022/03/20 07:14:19;;;;;;;;;;;;;;;4.14;55.25;102841.44;5104296;28;19927;-74
2022/03/20 07:16:44;;;;;;;;;;;;;;;4.22;54.36;102830.22;5107313;28;19916;-75
2022/03/20 07:19:10;;;;;;;;;;;;;;;4.25;53.83;102827.97;5103776;28;19931;-74
2022/03/20 07:21:35;;;;;;;;;;;;;;;4.32;53.30;102826.81;5099657;28;20383;-78
2022/03/20 07:24:01;;;;;;;;;;;;;;;4.31;53.05;102822.50;5102528;28;19955;-74
2022/03/20 07:31:55;;;;;;;;;;;;;;;4.36;52.26;102803.38;5101239;28;19926;-77
2022/03/20 07:34:20;;;;;;;;;;;;;;;4.56;51.39;102807.63;5102721;28;20277;-75
2022/03/20 07:36:46;;;;;;;;;;;;;;;5.51;49.07;102783.03;5103463;28;19923;-75
2022/03/20 07:39:11;;;;;;;;;;;;;;;6.12;46.81;102789.50;5098224;28;20281;-75
2022/03/20 07:41:37;;;;;;;;;;;;;;;5.91;46.25;102779.44;5098728;28;19942;-76
2022/03/20 07:44:03;;;;;;;;;;;;;;;5.56;47.24;102776.63;5101268;28;19919;-75
2022/03/20 07:46:28;;;;;;;;;;;;;;;5.34;47.34;102776.63;5102869;28;19920;-76
2022/03/20 07:48:53;;;;;;;;;;;;;;;5.05;48.21;102778.50;5097669;28;19976;-75
2022/03/20 07:51:20;;;;;;;;;;;;;;;4.88;48.65;102792.41;5104293;28;19976;-76
2022/03/20 07:53:45;;;;;;;;;;;;;;;4.75;48.70;102793.06;5106232;28;19920;-75
2022/03/20 07:56:11;;;;;;;;;;;;;;;4.66;48.49;102816.91;5106308;28;19931;-77
2022/03/20 07:58:37;;;;;;;;;;;;;;;4.61;48.30;102796.16;5107645;28;20416;-78
2022/03/20 08:01:03;;;;;;;;;;;;;;;4.68;47.95;102784.81;5087766;28;19955;-78
2022/03/20 08:03:28;;;;;;;;;;;;;;;4.60;48.14;102790.91;5103093;28;19924;-77
2022/03/20 08:05:53;;;;;;;;;;;;;;;4.63;48.48;102786.06;5105277;28;19955;-76
2022/03/20 08:08:19;;;;;;;;;;;;;;;4.57;48.21;102781.38;5105005;28;19916;-76
2022/03/20 08:10:44;;;;;;;;;;;;;;;4.57;48.09;102781.38;5106704;28;19930;-75
2022/03/20 08:13:10;;;;;;;;;;;;;;;4.55;48.60;102791.44;5107362;28;19924;-75
2022/03/20 08:15:35;;;;;;;;;;;;;;;4.48;48.27;102780.59;5105722;28;19923;-77
2022/03/20 08:18:01;;;;;;;;;;;;;;;4.49;48.28;102764.53;5099222;28;19915;-76
2022/03/20 08:20:27;;;;;;;;;;;;;;;4.48;48.46;102753.47;5102394;28;20303;-75
2022/03/20 08:22:52;;;;;;;;;;;;;;;4.46;48.51;102761.75;5101093;28;19926;-75
2022/03/20 08:25:17;;;;;;;;;;;;;;;4.46;48.52;102771.94;5098085;28;19919;-74
2022/03/20 08:27:47;;;;;;;;;;;;;;;4.46;48.35;102762.63;5103515;28;19927;-75
2022/03/20 08:30:15;;;;;;;;;;;;;;;4.49;48.97;102764.53;5108758;28;19916;-75
2022/03/20 08:32:41;;;;;;;;;;;;;;;4.49;49.13;102762.91;5105174;28;20394;-75
2022/03/20 08:35:06;;;;;;;;;;;;;;;4.50;48.92;102748.50;5104222;28;19970;-75
2022/03/20 08:37:32;;;;;;;;;;;;;;;4.60;48.68;102761.22;5102656;28;20387;-74
2022/03/20 08:39:57;;;;;;;;;;;;;;;4.55;48.77;102758.31;5102691;28;19916;-75
2022/03/20 08:42:23;;;;;;;;;;;;;;;4.59;48.27;102759.44;5106202;28;19920;-75
2022/03/20 08:44:50;;;;;;;;;;;;;;;4.60;48.26;102756.13;5107766;28;20367;-75
2022/03/20 08:47:16;;;;;;;;;;;;;;;4.63;48.75;102760.59;5105016;28;19928;-74
2022/03/20 08:49:41;;;;;;;;;;;;;;;4.61;48.51;102752.84;5103694;28;20014;-74
2022/03/20 08:52:06;;;;;;;;;;;;;;;4.63;48.13;102750.41;5106364;28;20090;-75
2022/03/20 08:54:32;;;;;;;;;;;;;;;4.56;48.45;102749.00;5102304;28;19959;-74
2022/03/20 08:56:57;;;;;;;;;;;;;;;4.52;48.63;102755.50;5106716;28;19963;-74
2022/03/20 08:59:22;;;;;;;;;;;;;;;4.54;48.47;102768.34;5102554;28;19920;-74
2022/03/20 09:01:48;;;;;;;;;;;;;;;4.55;48.71;102762.50;5092042;28;20273;-74
2022/03/20 09:04:13;;;;;;;;;;;;;;;4.55;49.08;102765.03;5102431;28;19961;-75
2022/03/20 09:06:43;;;;;;;;;;;;;;;4.46;49.63;102760.09;5106461;28;20010;-75
2022/03/20 09:09:08;;;;;;;;;;;;;;;4.33;50.25;102769.13;5107320;28;19928;-74
2022/03/20 09:11:33;;;;;;;;;;;;;;;4.29;50.22;102763.78;5101001;28;20375;-74
2022/03/20 09:13:59;;;;;;;;;;;;;;;4.37;50.45;102763.50;5102197;28;19956;-73
2022/03/20 09:19:10;;;;;;;;;;;;;;;4.51;50.12;102757.94;5099010;28;20392;-74
2022/03/20 09:21:37;;;;;;;;;;;;;;;4.59;49.57;102762.00;5101601;28;19943;-74
2022/03/20 09:24:02;;;;;;;;;;;;;;;4.71;49.41;102739.16;5097427;28;21635;-75
2022/03/20 09:26:28;;;;;;;;;;;;;;;4.77;49.24;102740.56;5113036;28;19924;-75
2022/03/20 09:28:54;;;;;;;;;;;;;;;4.95;49.23;102730.97;5111522;28;19924;-75
2022/03/20 09:31:20;;;;;;;;;;;;;;;5.28;48.52;102735.31;5113585;27;19924;-75
2022/03/20 09:33:46;;;;;;;;;;;;;;;5.83;47.14;102725.97;5101676;28;20459;-76
2022/03/20 09:36:11;;;;;;;;;;;;;;;6.82;46.30;102718.13;5102781;28;20362;-75
2022/03/20 09:38:36;;;;;;;;;;;;;;;8.64;43.06;102705.09;5102506;28;19984;-75
2022/03/20 09:41:09;;;;;;;;;;;;;;;10.42;39.26;102705.00;5104897;28;19920;-74
2022/03/20 09:43:38;;;;;;;;;;;;;;;11.94;34.91;102703.94;5101594;28;19924;-75
2022/03/20 09:46:03;;;;;;;;;;;;;;;11.91;35.57;102706.38;5095598;28;20399;-74
2022/03/20 09:48:29;;;;;;;;;;;;;;;11.34;35.59;102692.13;5099502;28;19916;-75
2022/03/20 09:50:55;;;;;;;;;;;;;;;11.69;37.29;102670.81;5100228;28;19931;-74
2022/03/20 09:53:21;;;;;;;;;;;;;;;13.83;32.54;102669.94;5104848;28;19920;-74
2022/03/20 09:55:46;;;;;;;;;;;;;;;14.77;29.97;102675.63;5100827;28;20482;-75
2022/03/20 09:58:12;;;;;;;;;;;;;;;14.81;29.88;102668.88;5099827;28;19920;-74
2022/03/20 10:00:37;;;;;;;;;;;;;;;13.50;30.72;102674.50;5104762;28;19924;-74
2022/03/20 10:03:15;;;;;;;;;;;;;;;11.72;33.14;102685.56;5106928;28;19920;-73
2022/03/20 10:05:40;;;;;;;;;;;;;;;10.50;35.25;102679.75;5101169;28;20453;-74
2022/03/20 10:08:10;;;;;;;;;;;;;;;9.40;37.68;102691.09;5101114;28;20324;-74
2022/03/20 10:10:36;;;;;;;;;;;;;;;8.55;39.11;102696.81;5104476;28;19920;-75
2022/03/20 10:13:01;;;;;;;;;;;;;;;7.76;41.19;102692.31;5105118;28;20370;-75
2022/03/20 10:15:43;;;;;;;;;;;;;;;7.45;41.90;102694.44;5104191;28;19919;-74
2022/03/20 10:18:10;;;;;;;;;;;;;;;7.24;42.82;102681.94;5107871;28;20416;-74
2022/03/20 10:20:36;;;;;;;;;;;;;;;7.07;43.58;102697.75;5109222;28;19922;-74
2022/03/20 10:23:02;;;;;;;;;;;;;;;6.99;43.80;102702.31;5105938;28;19927;-74
2022/03/20 10:25:27;;;;;;;;;;;;;;;6.92;45.00;102710.34;5105789;28;19924;-73
2022/03/20 10:27:57;;;;;;;;;;;;;;;6.41;62.71;102731.28;5106593;28;20014;-76
2022/03/20 10:30:22;;;;;;;;;;;;;;;5.77;64.85;102739.16;5103444;28;19920;-77
2022/03/20 10:32:49;;;;;;;;;;;;;;;4.98;70.82;102730.34;5106233;28;20285;-75
2022/03/20 10:35:14;;;;;;;;;;;;;;;4.62;74.02;102730.78;5102962;28;19919;-76
2022/03/20 10:37:47;;;;;;;;;;;;;;;4.49;73.32;102716.13;5105878;28;19924;-75
2022/03/20 10:40:14;;;;;;;;;;;;;;;4.51;71.40;102725.69;5107975;28;19963;-76
2022/03/20 10:42:40;;;;;;;;;;;;;;;4.30;73.72;102717.16;5104980;28;19982;-75
2022/03/20 10:45:06;;;;;;;;;;;;;;;4.07;75.11;102722.03;5107559;28;20358;-75
2022/03/20 10:47:32;;;;;;;;;;;;;;;4.02;76.55;102723.28;5101325;28;20290;-74
2022/03/20 10:50:05;;;;;;;;;;;;;;;4.21;75.96;102729.16;5100679;28;19919;-74
2022/03/20 10:52:30;;;;;;;;;;;;;;;4.37;76.71;102720.22;5100229;28;19927;-74
2022/03/20 10:54:56;;;;;;;;;;;;;;;4.48;77.93;102727.09;5105934;28;19922;-76
2022/03/20 10:57:31;;;;;;;;;;;;;;;4.73;77.60;102718.16;5107516;28;19919;-74
2022/03/20 10:59:58;;;;;;;;;;;;;;;5.05;77.08;102724.94;5105166;28;19916;-75
2022/03/20 11:02:24;;;;;;;;;;;;;;;5.19;74.80;102719.28;5106154;28;19912;-74
2022/03/20 11:04:53;;;;;;;;;;;;;;;5.21;74.96;102722.81;5105291;28;20338;-75
2022/03/20 11:07:19;;;;;;;;;;;;;;;5.11;75.14;102713.59;5101788;28;19986;-75
2022/03/20 11:09:45;;;;;;;;;;;;;;;5.08;75.50;102713.31;5107554;28;19932;-76
2022/03/20 11:12:13;;;;;;;;;;;;;;;5.08;74.63;102714.97;5101896;28;20397;-74
2022/03/20 11:14:38;;;;;;;;;;;;;;;5.09;75.35;102706.56;5100665;28;19961;-74
2022/03/20 11:17:06;;;;;;;;;;;;;;;5.20;76.73;102717.63;5099863;28;19923;-74
2022/03/20 11:19:33;;;;;;;;;;;;;;;5.43;73.43;102709.22;5103840;28;20034;-75
2022/03/20 11:22:03;;;;;;;;;;;;;;;5.57;72.52;102714.63;5106855;28;20301;-75
2022/03/20 11:24:29;;;;;;;;;;;;;;;5.79;72.12;102706.97;5104137;28;19928;-74
2022/03/20 11:26:57;;;;;;;;;;;;;;;5.90;71.36;102718.91;5105601;28;19912;-73
2022/03/20 11:29:24;;;;;;;;;;;;;;;5.87;71.22;102726.31;5104714;28;20046;-73
2022/03/20 11:31:49;;;;;;;;;;;;;;;5.95;69.67;102720.97;5100107;28;20199;-74
2022/03/20 11:34:16;;;;;;;;;;;;;;;5.91;69.25;102723.25;5104289;28;19920;-73
2022/03/20 11:37:00;;;;;;;;;;;;;;;5.93;71.84;102723.38;5104814;28;19965;-73
2022/03/20 11:39:25;;;;;;;;;;;;;;;5.76;71.26;102713.50;5100853;28;19920;-74
2022/03/20 11:42:09;;;;;;;;;;;;;;;5.48;73.10;102710.47;5106356;28;20235;-74
2022/03/20 11:44:34;;;;;;;;;;;;;;;5.20;76.40;102710.84;5103334;28;19931;-74
2022/03/20 11:47:15;;;;;;;;;;;;;;;5.20;77.06;102703.19;5104104;28;19956;-74
2022/03/20 11:49:40;;;;;;;;;;;;;;;5.56;76.15;102710.28;5105646;28;19924;-75
2022/03/20 11:52:07;;;;;;;;;;;;;;;6.05;75.53;102708.09;5103732;28;20275;-75
2022/03/20 11:54:50;;;;;;;;;;;;;;;6.31;71.82;102710.03;5099330;28;20069;-74
2022/03/20 11:57:30;;;;;;;;;;;;;;;6.51;71.62;102711.53;5101969;28;19934;-74
2022/03/20 11:59:57;;;;;;;;;;;;;;;6.63;69.29;102710.78;5103484;28;19931;-75
2022/03/20 12:02:28;;;;;;;;;;;;;;;6.63;69.34;102705.66;5106354;28;19923;-73
2022/03/20 12:04:59;;;;;;;;;;;;;;;6.57;68.34;102696.66;5108819;28;20388;-74
2022/03/20 12:07:25;;;;;;;;;;;;;;;6.66;68.42;102707.53;5105448;28;20426;-74
2022/03/20 12:09:59;;;;;;;;;;;;;;;6.79;66.87;102705.09;5117217;28;19920;-74
2022/03/20 12:12:54;;;;;;;;;;;;;;;6.96;65.72;102689.31;5122746;27;19922;-74
2022/03/20 12:15:23;;;;;;;;;;;;;;;7.01;65.58;102687.09;5093457;28;20331;-74
2022/03/20 12:18:17;;;;;;;;;;;;;;;7.01;64.66;102689.63;5104410;28;20022;-74
2022/03/20 12:20:49;;;;;;;;;;;;;;;7.12;63.73;102686.19;5099514;28;20363;-75
2022/03/20 12:23:40;;;;;;;;;;;;;;;7.18;59.63;102689.19;5104885;28;19931;-73
2022/03/20 12:26:24;;;;;;;;;;;;;;;7.18;60.59;102695.97;5096867;28;19995;-74
2022/03/20 12:28:49;;;;;;;;;;;;;;;7.12;61.04;102675.06;5105892;28;19965;-75
2022/03/20 12:31:27;;;;;;;;;;;;;;;7.14;60.31;102664.16;5109881;28;20019;-77
2022/03/20 12:34:11;;;;;;;;;;;;;;;7.21;59.56;102676.56;5107701;28;19950;-75
2022/03/20 12:36:36;;;;;;;;;;;;;;;7.24;59.09;102679.38;5109514;28;20016;-73
2022/03/20 12:39:02;;;;;;;;;;;;;;;7.29;60.34;102666.91;5109347;28;20422;-74
2022/03/20 12:41:28;;;;;;;;;;;;;;;7.46;59.50;102663.84;5104696;28;19991;-75
2022/03/20 12:43:58;;;;;;;;;;;;;;;7.61;59.14;102653.78;5106855;27;19950;-75
2022/03/20 12:46:24;;;;;;;;;;;;;;;7.70;59.87;102648.38;5108434;28;20399;-75
2022/03/20 12:48:53;;;;;;;;;;;;;;;7.87;58.38;102663.22;5107226;28;19945;-74
2022/03/20 12:51:32;;;;;;;;;;;;;;;7.88;55.74;102659.84;5101335;28;20002;-76
2022/03/20 12:54:01;;;;;;;;;;;;;;;7.82;56.63;102663.69;5108179;28;19953;-77
2022/03/20 12:56:31;;;;;;;;;;;;;;;7.98;54.79;102659.69;5102295;28;20332;-75
2022/03/20 12:58:56;;;;;;;;;;;;;;;8.12;55.15;102677.66;5101900;28;19924;-76
2022/03/20 13:01:22;;;;;;;;;;;;;;;8.26;54.38;102665.00;5104542;28;19916;-75
2022/03/20 13:03:48;;;;;;;;;;;;;;;8.51;55.16;102667.53;5105703;28;19935;-77
2022/03/20 13:06:15;;;;;;;;;;;;;;;8.75;53.93;102683.63;5106471;28;19977;-74
2022/03/20 13:08:43;;;;;;;;;;;;;;;8.75;54.63;102683.63;5104788;28;20064;-75
2022/03/20 13:14:03;;;;;;;;;;;;;;;9.00;54.53;102680.06;5101624;28;20387;-75
2022/03/20 13:16:29;;;;;;;;;;;;;;;8.96;53.74;102662.69;5097811;28;20023;-74
2022/03/20 13:18:55;;;;;;;;;;;;;;;8.90;52.70;102663.16;5102747;28;20441;-76
2022/03/20 13:21:20;;;;;;;;;;;;;;;8.97;53.22;102669.56;5101718;28;19965;-76
2022/03/20 13:23:46;;;;;;;;;;;;;;;9.19;52.39;102661.56;5102253;28;19920;-76
2022/03/20 13:26:14;;;;;;;;;;;;;;;9.37;50.22;102675.53;5102291;28;19931;-77
2022/03/20 13:28:40;;;;;;;;;;;;;;;9.30;51.21;102669.13;5099775;28;20407;-75